sensor_id;sensor_type;location;lat;lon;timestamp;P1;durP1;ratioP1;P2;durP2;ratioP2
64923;SDS011;51436;44.692;39.214;2022-07-29T00:00:22;5.78;;;2.58;;
64923;SDS011;51436;44.692;39.214;2022-07-29T00:05:28;7.07;;;2.53;;
64923;SDS011;51436;44.692;39.214;2022-07-29T00:07:55;10.80;;;2.72;;
64923;SDS011;51436;44.692;39.214;2022-07-29T00:10:22;6.68;;;2.63;;
64923;SDS011;51436;44.692;39.214;2022-07-29T00:12:48;3.78;;;2.17;;
64923;SDS011;51436;44.692;39.214;2022-07-29T00:15:15;5.43;;;2.35;;
64923;SDS011;51436;44.692;39.214;2022-07-29T00:17:41;6.22;;;2.88;;
64923;SDS011;51436;44.692;39.214;2022-07-29T00:20:08;7.22;;;2.70;;
64923;SDS011;51436;44.692;39.214;2022-07-29T00:22:36;7.78;;;2.50;;
64923;SDS011;51436;44.692;39.214;2022-07-29T00:25:04;6.43;;;2.50;;
64923;SDS011;51436;44.692;39.214;2022-07-29T00:27:32;8.10;;;2.63;;
64923;SDS011;51436;44.692;39.214;2022-07-29T00:29:58;14.57;;;2.50;;
64923;SDS011;51436;44.692;39.214;2022-07-29T00:32:25;11.60;;;3.00;;
64923;SDS011;51436;44.692;39.214;2022-07-29T00:34:51;7.95;;;2.78;;
64923;SDS011;51436;44.692;39.214;2022-07-29T00:37:36;12.50;;;2.85;;
64923;SDS011;51436;44.692;39.214;2022-07-29T00:40:03;4.32;;;2.67;;
64923;SDS011;51436;44.692;39.214;2022-07-29T00:42:30;6.35;;;2.85;;
64923;SDS011;51436;44.692;39.214;2022-07-29T00:47:48;4.22;;;2.60;;
64923;SDS011;51436;44.692;39.214;2022-07-29T00:50:14;10.38;;;2.67;;
64923;SDS011;51436;44.692;39.214;2022-07-29T00:52:41;3.42;;;2.88;;
64923;SDS011;51436;44.692;39.214;2022-07-29T00:55:11;9.43;;;2.58;;
64923;SDS011;51436;44.692;39.214;2022-07-29T00:57:39;6.50;;;2.50;;
64923;SDS011;51436;44.692;39.214;2022-07-29T01:00:16;8.77;;;2.65;;
64923;SDS011;51436;44.692;39.214;2022-07-29T01:02:45;8.25;;;2.83;;
64923;SDS011;51436;44.692;39.214;2022-07-29T01:05:17;6.32;;;2.70;;
64923;SDS011;51436;44.692;39.214;2022-07-29T01:07:48;8.30;;;2.67;;
64923;SDS011;51436;44.692;39.214;2022-07-29T01:10:17;4.80;;;2.80;;
64923;SDS011;51436;44.692;39.214;2022-07-29T01:12:48;4.65;;;2.13;;
64923;SDS011;51436;44.692;39.214;2022-07-29T01:15:16;9.07;;;2.85;;
64923;SDS011;51436;44.692;39.214;2022-07-29T01:18:14;5.50;;;2.42;;
64923;SDS011;51436;44.692;39.214;2022-07-29T01:26:39;9.68;;;3.00;;
64923;SDS011;51436;44.692;39.214;2022-07-29T01:32:04;10.60;;;2.75;;
64923;SDS011;51436;44.692;39.214;2022-07-29T01:34:39;8.77;;;2.75;;
64923;SDS011;51436;44.692;39.214;2022-07-29T01:40:04;10.35;;;2.80;;
64923;SDS011;51436;44.692;39.214;2022-07-29T01:42:35;5.53;;;2.25;;
64923;SDS011;51436;44.692;39.214;2022-07-29T01:45:10;7.75;;;2.70;;
64923;SDS011;51436;44.692;39.214;2022-07-29T01:47:54;7.30;;;3.35;;
64923;SDS011;51436;44.692;39.214;2022-07-29T01:50:34;8.13;;;2.65;;
64923;SDS011;51436;44.692;39.214;2022-07-29T01:53:06;5.55;;;2.75;;
64923;SDS011;51436;44.692;39.214;2022-07-29T01:55:36;13.70;;;2.55;;
64923;SDS011;51436;44.692;39.214;2022-07-29T01:58:06;8.63;;;2.53;;
64923;SDS011;51436;44.692;39.214;2022-07-29T02:00:34;11.18;;;3.22;;
64923;SDS011;51436;44.692;39.214;2022-07-29T02:03:02;18.65;;;2.80;;
64923;SDS011;51436;44.692;39.214;2022-07-29T02:05:33;10.95;;;3.15;;
64923;SDS011;51436;44.692;39.214;2022-07-29T02:08:03;12.73;;;3.28;;
64923;SDS011;51436;44.692;39.214;2022-07-29T02:10:34;9.85;;;2.92;;
64923;SDS011;51436;44.692;39.214;2022-07-29T02:13:04;9.15;;;3.08;;
64923;SDS011;51436;44.692;39.214;2022-07-29T02:15:33;14.60;;;2.88;;
64923;SDS011;51436;44.692;39.214;2022-07-29T02:18:05;19.15;;;3.38;;
64923;SDS011;51436;44.692;39.214;2022-07-29T02:20:53;8.25;;;2.42;;
64923;SDS011;51436;44.692;39.214;2022-07-29T02:23:23;12.32;;;2.60;;
64923;SDS011;51436;44.692;39.214;2022-07-29T02:25:55;27.65;;;3.13;;
64923;SDS011;51436;44.692;39.214;2022-07-29T02:28:24;23.80;;;2.80;;
64923;SDS011;51436;44.692;39.214;2022-07-29T02:30:53;26.65;;;3.47;;
64923;SDS011;51436;44.692;39.214;2022-07-29T02:33:23;10.32;;;3.10;;
64923;SDS011;51436;44.692;39.214;2022-07-29T02:35:50;17.55;;;2.92;;
64923;SDS011;51436;44.692;39.214;2022-07-29T02:38:18;25.55;;;3.25;;
64923;SDS011;51436;44.692;39.214;2022-07-29T02:41:10;14.30;;;2.72;;
64923;SDS011;51436;44.692;39.214;2022-07-29T02:46:08;24.38;;;3.45;;
64923;SDS011;51436;44.692;39.214;2022-07-29T02:48:41;13.13;;;2.50;;
64923;SDS011;51436;44.692;39.214;2022-07-29T02:51:19;20.02;;;2.90;;
64923;SDS011;51436;44.692;39.214;2022-07-29T02:53:51;8.52;;;2.92;;
64923;SDS011;51436;44.692;39.214;2022-07-29T02:56:23;15.48;;;2.35;;
64923;SDS011;51436;44.692;39.214;2022-07-29T02:58:54;9.65;;;2.47;;
64923;SDS011;51436;44.692;39.214;2022-07-29T03:01:24;8.30;;;2.90;;
64923;SDS011;51436;44.692;39.214;2022-07-29T03:03:55;7.55;;;2.65;;
64923;SDS011;51436;44.692;39.214;2022-07-29T03:06:25;11.27;;;2.92;;
64923;SDS011;51436;44.692;39.214;2022-07-29T03:08:53;7.93;;;2.45;;
64923;SDS011;51436;44.692;39.214;2022-07-29T03:11:20;9.15;;;2.63;;
64923;SDS011;51436;44.692;39.214;2022-07-29T03:13:47;9.98;;;3.03;;
64923;SDS011;51436;44.692;39.214;2022-07-29T03:16:14;11.23;;;2.88;;
64923;SDS011;51436;44.692;39.214;2022-07-29T03:18:41;6.30;;;2.33;;
64923;SDS011;51436;44.692;39.214;2022-07-29T03:21:08;9.40;;;2.65;;
64923;SDS011;51436;44.692;39.214;2022-07-29T03:23:35;3.65;;;2.75;;
64923;SDS011;51436;44.692;39.214;2022-07-29T03:26:01;5.93;;;2.85;;
64923;SDS011;51436;44.692;39.214;2022-07-29T03:28:37;6.25;;;2.85;;
64923;SDS011;51436;44.692;39.214;2022-07-29T03:31:03;17.90;;;3.53;;
64923;SDS011;51436;44.692;39.214;2022-07-29T03:33:31;12.10;;;3.80;;
64923;SDS011;51436;44.692;39.214;2022-07-29T03:35:59;5.35;;;3.42;;
64923;SDS011;51436;44.692;39.214;2022-07-29T03:38:27;9.15;;;5.07;;
64923;SDS011;51436;44.692;39.214;2022-07-29T03:40:58;6.80;;;4.35;;
64923;SDS011;51436;44.692;39.214;2022-07-29T03:43:32;11.10;;;5.15;;
64923;SDS011;51436;44.692;39.214;2022-07-29T03:46:04;12.05;;;8.50;;
64923;SDS011;51436;44.692;39.214;2022-07-29T03:48:36;12.82;;;9.25;;
64923;SDS011;51436;44.692;39.214;2022-07-29T03:51:08;21.67;;;8.32;;
64923;SDS011;51436;44.692;39.214;2022-07-29T03:53:34;10.35;;;6.50;;
64923;SDS011;51436;44.692;39.214;2022-07-29T03:56:02;8.27;;;4.53;;
64923;SDS011;51436;44.692;39.214;2022-07-29T03:58:32;13.73;;;4.32;;
64923;SDS011;51436;44.692;39.214;2022-07-29T04:00:59;8.82;;;4.22;;
64923;SDS011;51436;44.692;39.214;2022-07-29T04:03:25;7.20;;;3.83;;
64923;SDS011;51436;44.692;39.214;2022-07-29T04:06:02;13.23;;;4.85;;
64923;SDS011;51436;44.692;39.214;2022-07-29T04:08:33;9.98;;;4.28;;
64923;SDS011;51436;44.692;39.214;2022-07-29T04:11:00;7.50;;;3.97;;
64923;SDS011;51436;44.692;39.214;2022-07-29T04:13:28;10.45;;;3.80;;
64923;SDS011;51436;44.692;39.214;2022-07-29T04:15:54;8.75;;;3.53;;
64923;SDS011;51436;44.692;39.214;2022-07-29T04:18:21;9.13;;;3.50;;
64923;SDS011;51436;44.692;39.214;2022-07-29T04:20:47;17.80;;;3.65;;
64923;SDS011;51436;44.692;39.214;2022-07-29T04:23:14;9.05;;;4.35;;
64923;SDS011;51436;44.692;39.214;2022-07-29T04:25:40;16.40;;;5.90;;
64923;SDS011;51436;44.692;39.214;2022-07-29T04:28:08;8.57;;;5.50;;
64923;SDS011;51436;44.692;39.214;2022-07-29T04:30:35;15.82;;;5.55;;
64923;SDS011;51436;44.692;39.214;2022-07-29T04:33:04;14.45;;;5.00;;
64923;SDS011;51436;44.692;39.214;2022-07-29T04:35:33;16.80;;;6.07;;
64923;SDS011;51436;44.692;39.214;2022-07-29T04:38:01;13.52;;;6.40;;
64923;SDS011;51436;44.692;39.214;2022-07-29T04:40:29;11.65;;;6.00;;
64923;SDS011;51436;44.692;39.214;2022-07-29T04:42:55;13.90;;;7.28;;
64923;SDS011;51436;44.692;39.214;2022-07-29T04:45:22;19.17;;;8.05;;
64923;SDS011;51436;44.692;39.214;2022-07-29T04:47:49;16.10;;;8.20;;
64923;SDS011;51436;44.692;39.214;2022-07-29T04:50:15;18.55;;;8.68;;
64923;SDS011;51436;44.692;39.214;2022-07-29T04:52:43;24.05;;;8.40;;
64923;SDS011;51436;44.692;39.214;2022-07-29T04:55:09;19.23;;;8.38;;
64923;SDS011;51436;44.692;39.214;2022-07-29T04:57:36;13.73;;;7.80;;
64923;SDS011;51436;44.692;39.214;2022-07-29T05:00:03;13.00;;;8.05;;
64923;SDS011;51436;44.692;39.214;2022-07-29T05:02:31;19.02;;;7.65;;
64923;SDS011;51436;44.692;39.214;2022-07-29T05:04:57;18.00;;;7.43;;
64923;SDS011;51436;44.692;39.214;2022-07-29T05:07:23;18.25;;;6.70;;
64923;SDS011;51436;44.692;39.214;2022-07-29T05:09:50;15.57;;;7.13;;
64923;SDS011;51436;44.692;39.214;2022-07-29T05:12:16;14.27;;;6.07;;
64923;SDS011;51436;44.692;39.214;2022-07-29T05:15:06;10.45;;;5.90;;
64923;SDS011;51436;44.692;39.214;2022-07-29T05:17:33;14.70;;;6.80;;
64923;SDS011;51436;44.692;39.214;2022-07-29T05:19:59;17.38;;;6.45;;
64923;SDS011;51436;44.692;39.214;2022-07-29T05:22:26;15.40;;;6.70;;
64923;SDS011;51436;44.692;39.214;2022-07-29T05:24:52;18.88;;;6.57;;
64923;SDS011;51436;44.692;39.214;2022-07-29T05:27:18;18.83;;;6.65;;
64923;SDS011;51436;44.692;39.214;2022-07-29T05:29:45;15.55;;;6.75;;
64923;SDS011;51436;44.692;39.214;2022-07-29T05:32:11;19.40;;;6.38;;
64923;SDS011;51436;44.692;39.214;2022-07-29T05:34:39;18.85;;;6.45;;
64923;SDS011;51436;44.692;39.214;2022-07-29T05:37:06;9.73;;;5.88;;
64923;SDS011;51436;44.692;39.214;2022-07-29T05:39:33;15.23;;;6.07;;
64923;SDS011;51436;44.692;39.214;2022-07-29T05:41:59;23.33;;;5.70;;
64923;SDS011;51436;44.692;39.214;2022-07-29T05:44:26;13.13;;;6.07;;
64923;SDS011;51436;44.692;39.214;2022-07-29T05:46:52;14.38;;;6.97;;
64923;SDS011;51436;44.692;39.214;2022-07-29T05:49:19;14.77;;;6.55;;
64923;SDS011;51436;44.692;39.214;2022-07-29T05:51:45;11.70;;;6.40;;
64923;SDS011;51436;44.692;39.214;2022-07-29T05:54:12;12.05;;;6.53;;
64923;SDS011;51436;44.692;39.214;2022-07-29T05:56:39;11.50;;;7.30;;
64923;SDS011;51436;44.692;39.214;2022-07-29T05:59:05;14.18;;;5.97;;
64923;SDS011;51436;44.692;39.214;2022-07-29T06:01:32;11.23;;;6.50;;
64923;SDS011;51436;44.692;39.214;2022-07-29T06:03:58;15.48;;;7.32;;
64923;SDS011;51436;44.692;39.214;2022-07-29T06:06:25;10.30;;;5.43;;
64923;SDS011;51436;44.692;39.214;2022-07-29T06:08:51;14.98;;;5.45;;
64923;SDS011;51436;44.692;39.214;2022-07-29T06:11:17;17.55;;;8.80;;
64923;SDS011;51436;44.692;39.214;2022-07-29T06:13:44;21.15;;;8.85;;
64923;SDS011;51436;44.692;39.214;2022-07-29T06:16:10;23.80;;;7.13;;
64923;SDS011;51436;44.692;39.214;2022-07-29T06:18:36;12.82;;;5.72;;
64923;SDS011;51436;44.692;39.214;2022-07-29T06:21:06;12.27;;;6.22;;
64923;SDS011;51436;44.692;39.214;2022-07-29T06:23:34;9.25;;;5.57;;
64923;SDS011;51436;44.692;39.214;2022-07-29T06:26:02;13.07;;;5.85;;
64923;SDS011;51436;44.692;39.214;2022-07-29T06:28:28;9.90;;;5.60;;
64923;SDS011;51436;44.692;39.214;2022-07-29T06:30:54;12.68;;;6.18;;
64923;SDS011;51436;44.692;39.214;2022-07-29T06:33:21;9.45;;;5.40;;
64923;SDS011;51436;44.692;39.214;2022-07-29T06:35:47;10.10;;;5.38;;
64923;SDS011;51436;44.692;39.214;2022-07-29T06:38:15;16.35;;;5.22;;
64923;SDS011;51436;44.692;39.214;2022-07-29T06:40:44;14.60;;;5.18;;
64923;SDS011;51436;44.692;39.214;2022-07-29T06:43:38;10.63;;;5.72;;
64923;SDS011;51436;44.692;39.214;2022-07-29T06:46:10;15.95;;;6.47;;
64923;SDS011;51436;44.692;39.214;2022-07-29T06:48:41;13.18;;;5.53;;
64923;SDS011;51436;44.692;39.214;2022-07-29T06:51:08;8.32;;;4.85;;
64923;SDS011;51436;44.692;39.214;2022-07-29T06:53:35;7.35;;;4.53;;
64923;SDS011;51436;44.692;39.214;2022-07-29T06:56:03;15.10;;;4.65;;
64923;SDS011;51436;44.692;39.214;2022-07-29T06:58:30;7.32;;;4.40;;
64923;SDS011;51436;44.692;39.214;2022-07-29T07:00:57;10.35;;;4.78;;
64923;SDS011;51436;44.692;39.214;2022-07-29T07:03:26;11.68;;;5.10;;
64923;SDS011;51436;44.692;39.214;2022-07-29T07:05:53;5.95;;;4.20;;
64923;SDS011;51436;44.692;39.214;2022-07-29T07:08:20;6.53;;;4.13;;
64923;SDS011;51436;44.692;39.214;2022-07-29T07:10:48;8.02;;;3.75;;
64923;SDS011;51436;44.692;39.214;2022-07-29T07:13:14;6.20;;;3.78;;
64923;SDS011;51436;44.692;39.214;2022-07-29T07:15:43;9.43;;;4.05;;
64923;SDS011;51436;44.692;39.214;2022-07-29T07:18:11;10.02;;;3.97;;
64923;SDS011;51436;44.692;39.214;2022-07-29T07:20:37;7.70;;;3.35;;
64923;SDS011;51436;44.692;39.214;2022-07-29T07:23:06;4.78;;;3.50;;
64923;SDS011;51436;44.692;39.214;2022-07-29T07:25:33;7.50;;;4.47;;
64923;SDS011;51436;44.692;39.214;2022-07-29T07:27:59;11.57;;;4.22;;
64923;SDS011;51436;44.692;39.214;2022-07-29T07:30:26;7.75;;;3.90;;
64923;SDS011;51436;44.692;39.214;2022-07-29T07:32:53;7.80;;;3.70;;
64923;SDS011;51436;44.692;39.214;2022-07-29T07:35:21;5.40;;;3.85;;
64923;SDS011;51436;44.692;39.214;2022-07-29T07:37:47;4.95;;;3.53;;
64923;SDS011;51436;44.692;39.214;2022-07-29T07:40:13;4.82;;;3.38;;
64923;SDS011;51436;44.692;39.214;2022-07-29T07:42:54;10.05;;;3.60;;
64923;SDS011;51436;44.692;39.214;2022-07-29T07:45:21;7.43;;;3.28;;
64923;SDS011;51436;44.692;39.214;2022-07-29T07:47:47;5.00;;;2.90;;
64923;SDS011;51436;44.692;39.214;2022-07-29T07:50:15;7.90;;;3.38;;
64923;SDS011;51436;44.692;39.214;2022-07-29T07:52:50;5.13;;;3.45;;
64923;SDS011;51436;44.692;39.214;2022-07-29T07:55:18;5.82;;;3.60;;
64923;SDS011;51436;44.692;39.214;2022-07-29T07:57:45;5.95;;;3.50;;
64923;SDS011;51436;44.692;39.214;2022-07-29T08:00:14;5.97;;;2.97;;
64923;SDS011;51436;44.692;39.214;2022-07-29T08:02:42;6.18;;;3.67;;
64923;SDS011;51436;44.692;39.214;2022-07-29T08:05:09;4.15;;;2.67;;
64923;SDS011;51436;44.692;39.214;2022-07-29T08:07:36;9.13;;;2.50;;
64923;SDS011;51436;44.692;39.214;2022-07-29T08:10:02;9.95;;;2.72;;
64923;SDS011;51436;44.692;39.214;2022-07-29T08:12:29;3.60;;;2.83;;
64923;SDS011;51436;44.692;39.214;2022-07-29T08:14:55;4.13;;;2.53;;
64923;SDS011;51436;44.692;39.214;2022-07-29T08:17:21;6.72;;;2.50;;
64923;SDS011;51436;44.692;39.214;2022-07-29T08:19:48;5.18;;;2.70;;
64923;SDS011;51436;44.692;39.214;2022-07-29T08:22:18;6.18;;;2.55;;
64923;SDS011;51436;44.692;39.214;2022-07-29T08:24:45;7.80;;;2.67;;
64923;SDS011;51436;44.692;39.214;2022-07-29T08:27:21;2.72;;;2.22;;
64923;SDS011;51436;44.692;39.214;2022-07-29T08:32:37;2.85;;;2.28;;
64923;SDS011;51436;44.692;39.214;2022-07-29T08:35:04;3.28;;;2.58;;
64923;SDS011;51436;44.692;39.214;2022-07-29T08:37:34;4.97;;;2.10;;
64923;SDS011;51436;44.692;39.214;2022-07-29T08:40:01;3.65;;;1.77;;
64923;SDS011;51436;44.692;39.214;2022-07-29T08:42:27;4.20;;;2.15;;
64923;SDS011;51436;44.692;39.214;2022-07-29T08:44:53;3.05;;;2.00;;
64923;SDS011;51436;44.692;39.214;2022-07-29T08:47:23;12.40;;;2.53;;
64923;SDS011;51436;44.692;39.214;2022-07-29T08:52:20;8.25;;;2.97;;
64923;SDS011;51436;44.692;39.214;2022-07-29T08:54:50;3.50;;;2.05;;
64923;SDS011;51436;44.692;39.214;2022-07-29T08:57:18;5.95;;;2.33;;
64923;SDS011;51436;44.692;39.214;2022-07-29T08:59:46;4.57;;;2.15;;
64923;SDS011;51436;44.692;39.214;2022-07-29T09:02:18;4.53;;;2.50;;
64923;SDS011;51436;44.692;39.214;2022-07-29T09:04:46;4.00;;;2.20;;
64923;SDS011;51436;44.692;39.214;2022-07-29T09:07:14;5.95;;;2.38;;
64923;SDS011;51436;44.692;39.214;2022-07-29T09:09:42;2.58;;;2.28;;
64923;SDS011;51436;44.692;39.214;2022-07-29T09:12:11;3.78;;;2.40;;
64923;SDS011;51436;44.692;39.214;2022-07-29T09:14:38;10.82;;;2.67;;
64923;SDS011;51436;44.692;39.214;2022-07-29T09:17:04;2.58;;;2.35;;
64923;SDS011;51436;44.692;39.214;2022-07-29T09:19:35;10.13;;;2.67;;
64923;SDS011;51436;44.692;39.214;2022-07-29T09:22:06;7.00;;;2.50;;
64923;SDS011;51436;44.692;39.214;2022-07-29T09:27:20;5.63;;;2.70;;
64923;SDS011;51436;44.692;39.214;2022-07-29T09:30:07;5.60;;;2.60;;
64923;SDS011;51436;44.692;39.214;2022-07-29T09:32:57;3.80;;;2.20;;
64923;SDS011;51436;44.692;39.214;2022-07-29T09:35:27;3.53;;;2.42;;
64923;SDS011;51436;44.692;39.214;2022-07-29T09:37:54;8.02;;;3.03;;
64923;SDS011;51436;44.692;39.214;2022-07-29T09:40:22;5.72;;;2.58;;
64923;SDS011;51436;44.692;39.214;2022-07-29T09:42:51;9.50;;;3.90;;
64923;SDS011;51436;44.692;39.214;2022-07-29T09:45:28;7.20;;;3.65;;
64923;SDS011;51436;44.692;39.214;2022-07-29T09:47:59;7.47;;;2.83;;
64923;SDS011;51436;44.692;39.214;2022-07-29T09:50:40;7.50;;;3.67;;
64923;SDS011;51436;44.692;39.214;2022-07-29T09:53:07;8.18;;;3.40;;
64923;SDS011;51436;44.692;39.214;2022-07-29T09:55:46;5.10;;;2.58;;
64923;SDS011;51436;44.692;39.214;2022-07-29T10:00:46;8.93;;;3.00;;
64923;SDS011;51436;44.692;39.214;2022-07-29T10:03:32;5.32;;;3.15;;
64923;SDS011;51436;44.692;39.214;2022-07-29T10:06:17;5.93;;;3.33;;
64923;SDS011;51436;44.692;39.214;2022-07-29T10:14:40;6.15;;;3.60;;
64923;SDS011;51436;44.692;39.214;2022-07-29T10:17:08;12.82;;;3.13;;
64923;SDS011;51436;44.692;39.214;2022-07-29T10:19:36;11.00;;;3.40;;
64923;SDS011;51436;44.692;39.214;2022-07-29T10:22:07;13.88;;;3.70;;
64923;SDS011;51436;44.692;39.214;2022-07-29T10:24:35;12.45;;;3.47;;
64923;SDS011;51436;44.692;39.214;2022-07-29T10:27:04;2.83;;;2.60;;
64923;SDS011;51436;44.692;39.214;2022-07-29T10:29:32;5.90;;;3.38;;
64923;SDS011;51436;44.692;39.214;2022-07-29T10:37:37;8.07;;;4.15;;
64923;SDS011;51436;44.692;39.214;2022-07-29T10:43:23;8.88;;;2.83;;
64923;SDS011;51436;44.692;39.214;2022-07-29T10:45:56;8.68;;;3.08;;
64923;SDS011;51436;44.692;39.214;2022-07-29T10:48:26;35.85;;;4.63;;
64923;SDS011;51436;44.692;39.214;2022-07-29T10:50:54;29.65;;;4.88;;
64923;SDS011;51436;44.692;39.214;2022-07-29T10:53:23;9.20;;;3.70;;
64923;SDS011;51436;44.692;39.214;2022-07-29T10:55:50;18.67;;;4.15;;
64923;SDS011;51436;44.692;39.214;2022-07-29T10:58:22;11.05;;;3.28;;
64923;SDS011;51436;44.692;39.214;2022-07-29T11:00:50;18.73;;;3.30;;
64923;SDS011;51436;44.692;39.214;2022-07-29T11:06:15;9.95;;;3.08;;
64923;SDS011;51436;44.692;39.214;2022-07-29T11:08:42;13.15;;;3.38;;
64923;SDS011;51436;44.692;39.214;2022-07-29T11:13:50;7.43;;;3.20;;
64923;SDS011;51436;44.692;39.214;2022-07-29T11:16:22;5.00;;;3.58;;
64923;SDS011;51436;44.692;39.214;2022-07-29T11:21:43;11.90;;;3.58;;
64923;SDS011;51436;44.692;39.214;2022-07-29T11:27:10;12.80;;;3.63;;
64923;SDS011;51436;44.692;39.214;2022-07-29T11:29:52;4.43;;;3.30;;
64923;SDS011;51436;44.692;39.214;2022-07-29T11:32:36;6.55;;;3.10;;
64923;SDS011;51436;44.692;39.214;2022-07-29T11:37:44;5.63;;;2.80;;
64923;SDS011;51436;44.692;39.214;2022-07-29T11:40:12;6.25;;;3.08;;
64923;SDS011;51436;44.692;39.214;2022-07-29T11:42:47;8.93;;;3.20;;
64923;SDS011;51436;44.692;39.214;2022-07-29T11:45:15;5.82;;;2.97;;
64923;SDS011;51436;44.692;39.214;2022-07-29T11:52:59;6.05;;;3.00;;
64923;SDS011;51436;44.692;39.214;2022-07-29T11:55:26;9.98;;;3.00;;
64923;SDS011;51436;44.692;39.214;2022-07-29T12:00:22;8.68;;;4.03;;
64923;SDS011;51436;44.692;39.214;2022-07-29T12:02:50;10.13;;;4.10;;
64923;SDS011;51436;44.692;39.214;2022-07-29T12:05:17;10.98;;;3.40;;
64923;SDS011;51436;44.692;39.214;2022-07-29T12:07:44;3.67;;;3.35;;
64923;SDS011;51436;44.692;39.214;2022-07-29T12:10:23;13.25;;;4.32;;
64923;SDS011;51436;44.692;39.214;2022-07-29T12:12:56;9.68;;;3.03;;
64923;SDS011;51436;44.692;39.214;2022-07-29T12:18:17;21.23;;;6.03;;
64923;SDS011;51436;44.692;39.214;2022-07-29T12:20:46;7.32;;;3.45;;
64923;SDS011;51436;44.692;39.214;2022-07-29T12:23:13;5.75;;;3.67;;
64923;SDS011;51436;44.692;39.214;2022-07-29T12:25:42;6.55;;;3.55;;
64923;SDS011;51436;44.692;39.214;2022-07-29T12:28:10;10.93;;;3.00;;
64923;SDS011;51436;44.692;39.214;2022-07-29T12:33:40;12.43;;;3.58;;
64923;SDS011;51436;44.692;39.214;2022-07-29T12:36:17;10.02;;;4.00;;
64923;SDS011;51436;44.692;39.214;2022-07-29T12:39:03;8.63;;;3.40;;
64923;SDS011;51436;44.692;39.214;2022-07-29T12:41:30;5.65;;;3.22;;
64923;SDS011;51436;44.692;39.214;2022-07-29T12:43:57;18.83;;;5.10;;
64923;SDS011;51436;44.692;39.214;2022-07-29T12:46:29;7.50;;;3.78;;
64923;SDS011;51436;44.692;39.214;2022-07-29T12:48:55;4.37;;;3.17;;
64923;SDS011;51436;44.692;39.214;2022-07-29T12:51:32;9.27;;;3.50;;
64923;SDS011;51436;44.692;39.214;2022-07-29T12:54:07;5.03;;;3.13;;
64923;SDS011;51436;44.692;39.214;2022-07-29T12:59:13;8.18;;;3.10;;
64923;SDS011;51436;44.692;39.214;2022-07-29T13:01:47;6.82;;;2.80;;
64923;SDS011;51436;44.692;39.214;2022-07-29T13:04:26;3.45;;;2.60;;
64923;SDS011;51436;44.692;39.214;2022-07-29T13:07:03;8.00;;;2.95;;
64923;SDS011;51436;44.692;39.214;2022-07-29T13:09:40;5.10;;;2.58;;
64923;SDS011;51436;44.692;39.214;2022-07-29T13:12:09;11.90;;;3.30;;
64923;SDS011;51436;44.692;39.214;2022-07-29T13:14:38;6.25;;;3.00;;
64923;SDS011;51436;44.692;39.214;2022-07-29T13:17:15;3.13;;;2.83;;
64923;SDS011;51436;44.692;39.214;2022-07-29T13:19:47;5.43;;;2.80;;
64923;SDS011;51436;44.692;39.214;2022-07-29T13:22:18;4.38;;;2.75;;
64923;SDS011;51436;44.692;39.214;2022-07-29T13:24:47;6.55;;;3.08;;
64923;SDS011;51436;44.692;39.214;2022-07-29T13:27:22;2.75;;;2.22;;
64923;SDS011;51436;44.692;39.214;2022-07-29T13:29:50;3.20;;;2.72;;
64923;SDS011;51436;44.692;39.214;2022-07-29T13:32:18;5.82;;;3.25;;
64923;SDS011;51436;44.692;39.214;2022-07-29T13:34:45;5.53;;;2.80;;
64923;SDS011;51436;44.692;39.214;2022-07-29T13:37:12;5.57;;;2.80;;
64923;SDS011;51436;44.692;39.214;2022-07-29T13:39:38;7.50;;;3.05;;
64923;SDS011;51436;44.692;39.214;2022-07-29T13:42:06;19.17;;;3.35;;
64923;SDS011;51436;44.692;39.214;2022-07-29T13:44:34;20.10;;;3.38;;
64923;SDS011;51436;44.692;39.214;2022-07-29T13:47:02;8.02;;;2.58;;
64923;SDS011;51436;44.692;39.214;2022-07-29T13:49:29;10.73;;;2.95;;
64923;SDS011;51436;44.692;39.214;2022-07-29T13:51:55;4.35;;;3.10;;
64923;SDS011;51436;44.692;39.214;2022-07-29T13:54:22;8.45;;;2.90;;
64923;SDS011;51436;44.692;39.214;2022-07-29T13:59:26;9.93;;;3.30;;
64923;SDS011;51436;44.692;39.214;2022-07-29T14:01:52;6.60;;;3.55;;
64923;SDS011;51436;44.692;39.214;2022-07-29T14:04:19;6.13;;;3.33;;
64923;SDS011;51436;44.692;39.214;2022-07-29T14:06:45;7.20;;;3.40;;
64923;SDS011;51436;44.692;39.214;2022-07-29T14:09:11;6.43;;;4.22;;
64923;SDS011;51436;44.692;39.214;2022-07-29T14:11:38;9.57;;;4.72;;
64923;SDS011;51436;44.692;39.214;2022-07-29T14:14:37;5.70;;;3.28;;
64923;SDS011;51436;44.692;39.214;2022-07-29T14:17:04;11.75;;;3.28;;
64923;SDS011;51436;44.692;39.214;2022-07-29T14:19:31;12.13;;;6.20;;
64923;SDS011;51436;44.692;39.214;2022-07-29T14:22:02;17.42;;;5.10;;
64923;SDS011;51436;44.692;39.214;2022-07-29T14:24:29;21.08;;;10.65;;
64923;SDS011;51436;44.692;39.214;2022-07-29T14:26:56;17.17;;;7.43;;
64923;SDS011;51436;44.692;39.214;2022-07-29T14:29:42;9.77;;;4.75;;
64923;SDS011;51436;44.692;39.214;2022-07-29T14:32:09;13.30;;;5.68;;
64923;SDS011;51436;44.692;39.214;2022-07-29T14:34:37;10.60;;;3.90;;
64923;SDS011;51436;44.692;39.214;2022-07-29T14:37:05;20.08;;;5.32;;
64923;SDS011;51436;44.692;39.214;2022-07-29T14:39:32;22.30;;;7.25;;
64923;SDS011;51436;44.692;39.214;2022-07-29T14:42:00;17.75;;;6.63;;
64923;SDS011;51436;44.692;39.214;2022-07-29T14:44:26;17.33;;;5.97;;
64923;SDS011;51436;44.692;39.214;2022-07-29T14:47:13;14.65;;;5.15;;
64923;SDS011;51436;44.692;39.214;2022-07-29T14:49:40;9.82;;;3.17;;
64923;SDS011;51436;44.692;39.214;2022-07-29T14:52:06;14.77;;;4.05;;
64923;SDS011;51436;44.692;39.214;2022-07-29T14:54:33;20.20;;;4.45;;
64923;SDS011;51436;44.692;39.214;2022-07-29T14:56:59;8.90;;;3.60;;
64923;SDS011;51436;44.692;39.214;2022-07-29T14:59:26;17.83;;;4.30;;
64923;SDS011;51436;44.692;39.214;2022-07-29T15:01:53;15.23;;;3.40;;
64923;SDS011;51436;44.692;39.214;2022-07-29T15:04:33;19.35;;;2.97;;
64923;SDS011;51436;44.692;39.214;2022-07-29T15:07:00;5.57;;;2.80;;
64923;SDS011;51436;44.692;39.214;2022-07-29T15:09:26;22.20;;;3.95;;
64923;SDS011;51436;44.692;39.214;2022-07-29T15:12:01;16.08;;;3.22;;
64923;SDS011;51436;44.692;39.214;2022-07-29T15:14:28;13.35;;;3.10;;
64923;SDS011;51436;44.692;39.214;2022-07-29T15:16:55;14.57;;;3.08;;
64923;SDS011;51436;44.692;39.214;2022-07-29T15:19:21;7.82;;;3.05;;
64923;SDS011;51436;44.692;39.214;2022-07-29T15:21:49;4.18;;;2.72;;
64923;SDS011;51436;44.692;39.214;2022-07-29T15:24:16;10.18;;;3.10;;
64923;SDS011;51436;44.692;39.214;2022-07-29T15:26:43;15.90;;;3.05;;
64923;SDS011;51436;44.692;39.214;2022-07-29T15:29:09;8.38;;;2.70;;
64923;SDS011;51436;44.692;39.214;2022-07-29T15:31:37;8.23;;;2.92;;
64923;SDS011;51436;44.692;39.214;2022-07-29T15:34:04;6.72;;;3.05;;
64923;SDS011;51436;44.692;39.214;2022-07-29T15:36:30;14.23;;;2.60;;
64923;SDS011;51436;44.692;39.214;2022-07-29T15:39:00;7.43;;;2.90;;
64923;SDS011;51436;44.692;39.214;2022-07-29T15:41:26;13.65;;;3.30;;
64923;SDS011;51436;44.692;39.214;2022-07-29T15:43:54;9.18;;;3.13;;
64923;SDS011;51436;44.692;39.214;2022-07-29T15:49:29;3.90;;;3.10;;
64923;SDS011;51436;44.692;39.214;2022-07-29T15:51:59;14.32;;;3.40;;
64923;SDS011;51436;44.692;39.214;2022-07-29T15:54:26;16.67;;;3.75;;
64923;SDS011;51436;44.692;39.214;2022-07-29T15:57:08;69.22;;;26.60;;
64923;SDS011;51436;44.692;39.214;2022-07-29T15:59:35;102.05;;;43.22;;
64923;SDS011;51436;44.692;39.214;2022-07-29T16:02:01;60.13;;;27.80;;